createdAt,value
2023-05-19T00:00:24.984Z,0.00
2023-05-19T00:01:24.968Z,0.00
2023-05-19T00:02:24.998Z,0.00
2023-05-19T00:03:24.974Z,0.00
2023-05-19T00:04:24.952Z,0.00
2023-05-19T00:05:24.932Z,0.00
2023-05-19T00:06:24.913Z,0.00
2023-05-19T00:07:24.868Z,0.00
2023-05-19T00:08:24.937Z,0.00
2023-05-19T00:09:24.865Z,0.00
2023-05-19T00:10:24.840Z,0.00
2023-05-19T00:11:24.828Z,0.00
2023-05-19T00:12:24.830Z,0.00
2023-05-19T00:13:24.829Z,0.00
2023-05-19T00:14:24.817Z,0.00
2023-05-19T00:15:24.793Z,0.00
2023-05-19T00:16:24.942Z,0.00
2023-05-19T00:17:24.772Z,0.00
2023-05-19T00:18:24.782Z,0.00
2023-05-19T00:19:25.584Z,0.00
2023-05-19T00:20:24.768Z,0.00
2023-05-19T00:21:24.720Z,0.00
2023-05-19T00:22:24.744Z,0.00
2023-05-19T00:23:24.727Z,0.00
2023-05-19T00:24:24.698Z,0.00
2023-05-19T00:25:24.690Z,0.00
2023-05-19T00:26:24.686Z,0.00
2023-05-19T00:27:24.676Z,0.00
2023-05-19T00:28:24.669Z,0.00
2023-05-19T00:29:24.637Z,0.00
2023-05-19T00:30:24.637Z,0.00
2023-05-19T00:31:24.644Z,0.00
2023-05-19T00:32:24.732Z,0.00
2023-05-19T00:33:24.595Z,0.00
2023-05-19T00:34:24.599Z,0.00
2023-05-19T00:35:24.591Z,0.00
2023-05-19T00:36:24.566Z,0.00
2023-05-19T00:37:24.575Z,0.00
2023-05-19T00:38:24.556Z,0.00
2023-05-19T00:39:24.547Z,0.00
2023-05-19T00:40:24.523Z,0.00
2023-05-19T00:41:24.537Z,0.00
2023-05-19T00:42:24.518Z,0.00
2023-05-19T00:43:24.503Z,0.00
2023-05-19T00:44:24.497Z,0.00
2023-05-19T00:45:24.472Z,0.00
2023-05-19T00:46:24.485Z,0.00
2023-05-19T00:47:24.560Z,0.00
2023-05-19T00:48:24.448Z,0.00
2023-05-19T00:49:24.432Z,0.00
2023-05-19T00:50:24.424Z,0.00
2023-05-19T00:51:24.437Z,0.00
2023-05-19T00:52:24.404Z,0.00
2023-05-19T00:53:24.391Z,0.00
2023-05-19T00:54:24.380Z,0.00
2023-05-19T00:55:24.392Z,0.00
2023-05-19T00:56:24.378Z,0.00
2023-05-19T00:57:24.341Z,0.00
2023-05-19T00:58:24.340Z,0.00
2023-05-19T00:59:24.322Z,0.00
2023-05-19T01:00:24.331Z,0.00
2023-05-19T01:01:24.341Z,0.00
2023-05-19T01:02:24.337Z,0.00
2023-05-19T01:03:24.396Z,0.00
2023-05-19T01:04:24.267Z,0.00
2023-05-19T01:05:24.278Z,0.00
2023-05-19T01:06:24.245Z,0.00
2023-05-19T01:07:24.238Z,0.00
2023-05-19T01:08:24.240Z,0.00
2023-05-19T01:09:24.225Z,0.00
2023-05-19T01:10:24.237Z,0.00
2023-05-19T01:11:24.196Z,0.00
2023-05-19T01:12:24.197Z,0.00
2023-05-19T01:13:24.175Z,0.00
2023-05-19T01:14:24.192Z,0.00
2023-05-19T01:15:24.191Z,0.00
2023-05-19T01:16:24.149Z,0.00
2023-05-19T01:17:24.126Z,0.00
2023-05-19T01:18:24.130Z,0.00
2023-05-19T01:19:24.172Z,0.00
2023-05-19T01:20:24.105Z,0.00
2023-05-19T01:21:24.092Z,0.00
2023-05-19T01:22:24.081Z,0.00
2023-05-19T01:23:24.111Z,0.00
2023-05-19T01:24:24.089Z,0.00
2023-05-19T01:25:24.046Z,0.00
2023-05-19T01:26:24.043Z,0.00
2023-05-19T01:27:24.019Z,0.00
2023-05-19T01:28:24.029Z,0.00
2023-05-19T01:29:24.014Z,0.00
2023-05-19T01:30:23.986Z,0.00
2023-05-19T01:31:24.110Z,0.00
2023-05-19T01:32:24.053Z,0.00
2023-05-19T01:33:23.993Z,0.00
2023-05-19T01:34:23.953Z,0.00
2023-05-19T01:35:23.939Z,0.00
2023-05-19T01:36:23.941Z,0.00
2023-05-19T01:37:23.921Z,0.00
2023-05-19T01:38:23.927Z,0.00
2023-05-19T01:39:23.896Z,0.00
2023-05-19T01:40:23.907Z,0.00
2023-05-19T01:41:23.884Z,0.00
2023-05-19T01:42:24.062Z,0.00
2023-05-19T01:43:23.884Z,0.00
2023-05-19T01:44:23.852Z,0.00
2023-05-19T01:45:23.832Z,0.00
2023-05-19T01:46:23.878Z,0.00
2023-05-19T01:47:23.861Z,0.00
2023-05-19T01:48:23.821Z,0.00
2023-05-19T01:49:23.815Z,0.00
2023-05-19T01:50:23.795Z,0.00
2023-05-19T01:51:23.787Z,0.00
2023-05-19T01:52:23.798Z,0.00
2023-05-19T01:53:23.771Z,0.00
2023-05-19T01:54:23.764Z,0.00
2023-05-19T01:55:23.827Z,0.00
2023-05-19T01:56:23.722Z,0.00
2023-05-19T01:57:23.748Z,0.00
2023-05-19T01:58:23.714Z,0.00
2023-05-19T01:59:23.700Z,0.00
2023-05-19T02:00:23.703Z,0.00
2023-05-19T02:01:23.733Z,0.00
2023-05-19T02:02:23.711Z,0.00
2023-05-19T02:03:23.658Z,0.00
2023-05-19T02:04:23.705Z,0.00
2023-05-19T02:05:23.639Z,0.00
2023-05-19T02:06:23.645Z,0.00
2023-05-19T02:07:23.617Z,0.00
2023-05-19T02:08:23.602Z,0.00
2023-05-19T02:09:23.607Z,0.00
2023-05-19T02:10:23.623Z,0.00
2023-05-19T02:11:23.593Z,0.00
2023-05-19T02:12:23.559Z,0.00
2023-05-19T02:13:23.558Z,0.00
2023-05-19T02:14:23.535Z,0.00
2023-05-19T02:15:23.553Z,0.00
2023-05-19T02:16:23.570Z,0.00
2023-05-19T02:17:23.544Z,0.00
2023-05-19T02:18:23.487Z,0.00
2023-05-19T02:19:23.638Z,0.00
2023-05-19T02:20:23.484Z,0.00
2023-05-19T02:21:23.466Z,0.00
2023-05-19T02:22:23.452Z,0.00
2023-05-19T02:23:23.445Z,0.00
2023-05-19T02:24:23.433Z,0.00
2023-05-19T02:25:23.794Z,0.00
2023-05-19T02:26:23.408Z,0.00
2023-05-19T02:27:23.404Z,0.00
2023-05-19T02:28:23.393Z,0.00
2023-05-19T02:29:23.410Z,0.00
2023-05-19T02:30:23.382Z,0.00
2023-05-19T02:31:23.387Z,0.00
2023-05-19T02:32:23.353Z,0.00
2023-05-19T02:33:23.332Z,0.00
2023-05-19T02:34:23.354Z,0.00
2023-05-19T02:35:23.317Z,0.00
2023-05-19T02:36:23.296Z,0.00
2023-05-19T02:37:23.297Z,0.00
2023-05-19T02:38:23.282Z,0.00
2023-05-19T02:39:23.291Z,0.00
2023-05-19T02:40:23.277Z,0.00
2023-05-19T02:41:23.254Z,0.00
2023-05-19T02:42:23.249Z,0.00
2023-05-19T02:43:23.252Z,0.00
2023-05-19T02:44:23.231Z,0.00
2023-05-19T02:45:23.220Z,0.00
2023-05-19T02:46:23.219Z,0.00
2023-05-19T02:47:23.237Z,0.00
2023-05-19T02:48:23.139Z,1.00
2023-05-19T02:49:23.178Z,0.00
2023-05-19T02:50:23.153Z,0.00
2023-05-19T02:51:23.157Z,0.00
2023-05-19T02:52:23.133Z,0.00
2023-05-19T02:53:23.103Z,1.00
2023-05-19T02:54:23.059Z,1.00
2023-05-19T02:55:23.062Z,1.00
2023-05-19T02:56:23.042Z,1.00
2023-05-19T02:57:23.112Z,0.00
2023-05-19T02:58:23.090Z,0.00
2023-05-19T02:59:25.408Z,0.00
2023-05-19T03:00:23.012Z,2.00
2023-05-19T03:01:23.105Z,1.00
2023-05-19T03:02:22.996Z,1.00
2023-05-19T03:03:23.140Z,0.00
2023-05-19T03:04:22.980Z,2.00
2023-05-19T03:05:22.961Z,1.00
2023-05-19T03:06:22.930Z,1.00
2023-05-19T03:07:22.946Z,6.00
2023-05-19T03:08:22.962Z,3.00
2023-05-19T03:09:22.914Z,2.00
2023-05-19T03:10:22.904Z,2.00
2023-05-19T03:11:22.902Z,1.00
2023-05-19T03:12:22.924Z,2.00
2023-05-19T03:13:22.879Z,2.00
2023-05-19T03:14:22.857Z,6.00
2023-05-19T03:15:22.848Z,6.00
2023-05-19T03:16:22.894Z,4.00
2023-05-19T03:17:22.866Z,4.00
2023-05-19T03:18:22.827Z,7.00
2023-05-19T03:19:22.944Z,9.00
2023-05-19T03:20:22.802Z,9.00
2023-05-19T03:21:22.806Z,9.00
2023-05-19T03:22:22.777Z,9.00
2023-05-19T03:23:22.771Z,12.00
2023-05-19T03:24:22.757Z,14.00
2023-05-19T03:25:22.775Z,13.00
2023-05-19T03:26:22.749Z,13.00
2023-05-19T03:27:22.741Z,12.00
2023-05-19T03:28:22.727Z,14.00
2023-05-19T03:29:22.729Z,15.00
2023-05-19T03:30:22.698Z,16.00
2023-05-19T03:31:22.726Z,18.00
2023-05-19T03:32:22.725Z,17.00
2023-05-19T03:33:22.859Z,21.00
2023-05-19T03:34:22.682Z,24.00
2023-05-19T03:35:22.664Z,25.00
2023-05-19T03:36:22.667Z,25.00
2023-05-19T03:37:22.638Z,25.00
2023-05-19T03:38:22.623Z,24.00
2023-05-19T03:39:22.620Z,27.00
2023-05-19T03:40:22.615Z,30.00
2023-05-19T03:41:22.579Z,33.00
2023-05-19T03:42:22.626Z,37.00
2023-05-19T03:43:22.560Z,42.00
2023-05-19T03:44:22.578Z,44.00
2023-05-19T03:45:22.548Z,46.00
2023-05-19T03:46:22.649Z,51.00
2023-05-19T03:47:22.518Z,50.00
2023-05-19T03:48:22.517Z,51.00
2023-05-19T03:49:22.520Z,53.00
2023-05-19T03:50:22.490Z,57.00
2023-05-19T03:51:22.485Z,60.00
2023-05-19T03:52:22.470Z,62.00
2023-05-19T03:53:22.481Z,65.00
2023-05-19T03:54:22.511Z,66.00
2023-05-19T03:55:22.475Z,67.00
2023-05-19T03:56:22.415Z,71.00
2023-05-19T03:57:22.417Z,75.00
2023-05-19T03:58:22.441Z,77.00
2023-05-19T03:59:22.400Z,77.00
2023-05-19T04:00:22.398Z,77.00
2023-05-19T04:01:22.382Z,82.00
2023-05-19T04:02:22.421Z,80.00
2023-05-19T04:03:22.452Z,87.00
2023-05-19T04:04:22.381Z,85.00
2023-05-19T04:05:22.330Z,91.00
2023-05-19T04:06:22.312Z,90.00
2023-05-19T04:07:22.336Z,95.00
2023-05-19T04:08:22.336Z,95.00
2023-05-19T04:09:22.283Z,103.00
2023-05-19T04:10:22.312Z,106.00
2023-05-19T04:11:22.285Z,113.00
2023-05-19T04:12:22.312Z,119.00
2023-05-19T04:13:22.321Z,119.00
2023-05-19T04:14:22.236Z,123.00
2023-05-19T04:15:22.228Z,122.00
2023-05-19T04:16:22.328Z,128.00
2023-05-19T04:17:22.226Z,135.00
2023-05-19T04:18:22.209Z,135.00
2023-05-19T04:19:22.279Z,151.00
2023-05-19T04:20:22.174Z,146.00
2023-05-19T04:21:22.191Z,154.00
2023-05-19T04:22:22.177Z,152.00
2023-05-19T04:23:22.142Z,160.00
2023-05-19T04:24:22.172Z,161.00
2023-05-19T04:25:22.124Z,164.00
2023-05-19T04:26:22.147Z,165.00
2023-05-19T04:27:22.101Z,169.00
2023-05-19T04:28:22.088Z,155.00
2023-05-19T04:29:22.086Z,165.00
2023-05-19T04:30:22.102Z,173.00
2023-05-19T04:31:22.176Z,174.00
2023-05-19T04:32:22.042Z,181.00
2023-05-19T04:33:22.058Z,190.00
2023-05-19T04:34:22.061Z,202.00
2023-05-19T04:35:22.042Z,264.00
2023-05-19T04:36:22.030Z,204.00
2023-05-19T04:37:22.007Z,199.00
2023-05-19T04:38:22.016Z,208.00
2023-05-19T04:39:21.976Z,217.00
2023-05-19T04:40:22.001Z,220.00
2023-05-19T04:41:21.994Z,227.00
2023-05-19T04:42:21.973Z,233.00
2023-05-19T04:43:21.967Z,240.00
2023-05-19T04:44:21.951Z,248.00
2023-05-19T04:45:21.972Z,255.00
2023-05-19T04:46:22.019Z,253.00
2023-05-19T04:47:22.005Z,280.00
2023-05-19T04:48:21.909Z,259.00
2023-05-19T04:49:21.958Z,265.00
2023-05-19T04:50:21.901Z,277.00
2023-05-19T04:51:21.872Z,307.00
2023-05-19T04:52:21.905Z,287.00
2023-05-19T04:53:21.860Z,321.00
2023-05-19T04:54:21.838Z,297.00
2023-05-19T04:55:21.849Z,312.00
2023-05-19T04:56:21.809Z,301.00
2023-05-19T04:57:21.809Z,316.00
2023-05-19T04:58:21.774Z,354.00
2023-05-19T04:59:21.788Z,425.00
2023-05-19T05:00:21.757Z,510.00
2023-05-19T05:01:21.847Z,595.00
2023-05-19T05:02:21.928Z,407.00
2023-05-19T05:03:21.931Z,457.00
2023-05-19T05:04:21.731Z,435.00
2023-05-19T05:05:21.706Z,409.00
2023-05-19T05:06:21.687Z,467.00
2023-05-19T05:07:21.680Z,628.00
2023-05-19T05:08:21.681Z,1051.00
2023-05-19T05:09:21.661Z,629.00
2023-05-19T05:10:21.645Z,726.00
2023-05-19T05:11:21.643Z,1502.00
2023-05-19T05:12:21.626Z,1961.00
2023-05-19T05:13:21.624Z,4678.00
2023-05-19T05:14:21.609Z,1829.00
2023-05-19T05:15:21.639Z,1175.00
2023-05-19T05:16:21.648Z,773.00
2023-05-19T05:17:21.622Z,702.00
2023-05-19T05:18:21.586Z,707.00
2023-05-19T05:19:21.592Z,604.00
2023-05-19T05:20:21.551Z,635.00
2023-05-19T05:21:21.534Z,892.00
2023-05-19T05:22:21.537Z,742.00
2023-05-19T05:23:21.513Z,643.00
2023-05-19T05:24:21.508Z,702.00
2023-05-19T05:25:21.506Z,754.00
2023-05-19T05:26:21.471Z,868.00
2023-05-19T05:27:21.503Z,1052.00
2023-05-19T05:28:21.481Z,1226.00
2023-05-19T05:29:21.469Z,1351.00
2023-05-19T05:30:21.444Z,1415.00
2023-05-19T05:31:21.452Z,1383.00
2023-05-19T05:32:21.460Z,1402.00
2023-05-19T05:33:21.524Z,1215.00
2023-05-19T05:34:21.388Z,1332.00
2023-05-19T05:35:21.385Z,5857.00
2023-05-19T05:36:21.377Z,1136.00
2023-05-19T05:37:21.388Z,836.00
2023-05-19T05:38:21.362Z,978.00
2023-05-19T05:39:21.340Z,868.00
2023-05-19T05:40:21.335Z,1028.00
2023-05-19T05:41:21.344Z,1232.00
2023-05-19T05:42:21.318Z,1316.00
2023-05-19T05:43:21.297Z,1384.00
2023-05-19T05:44:21.287Z,1452.00
2023-05-19T05:45:21.290Z,1567.00
2023-05-19T05:46:21.319Z,2370.00
2023-05-19T05:47:21.268Z,1600.00
2023-05-19T05:48:21.240Z,1586.00
2023-05-19T05:49:21.239Z,1580.00
2023-05-19T05:50:21.292Z,1595.00
2023-05-19T05:51:21.230Z,4643.00
2023-05-19T05:52:21.204Z,1611.00
2023-05-19T05:53:21.195Z,1603.00
2023-05-19T05:54:21.182Z,899.00
2023-05-19T05:55:21.198Z,2402.00
2023-05-19T05:56:21.158Z,1011.00
2023-05-19T05:57:21.160Z,1103.00
2023-05-19T05:58:21.133Z,2635.00
2023-05-19T05:59:21.151Z,1082.00
2023-05-19T06:00:21.146Z,987.00
2023-05-19T06:01:21.113Z,874.00
2023-05-19T06:02:21.132Z,1994.00
2023-05-19T06:03:21.175Z,860.00
2023-05-19T06:04:21.347Z,1069.00
2023-05-19T06:05:21.134Z,1408.00
2023-05-19T06:06:21.064Z,2353.00
2023-05-19T06:07:21.068Z,8228.00
2023-05-19T06:08:21.047Z,26182.00
2023-05-19T06:09:21.040Z,6618.00
2023-05-19T06:10:21.011Z,79735.00
2023-05-19T06:11:20.999Z,81168.00
2023-05-19T06:12:20.998Z,69400.00
2023-05-19T06:13:20.991Z,6595.00
2023-05-19T06:14:21.009Z,28490.00
2023-05-19T06:15:20.979Z,13596.00
2023-05-19T06:16:21.012Z,1903.00
2023-05-19T06:17:20.937Z,1123.00
2023-05-19T06:18:20.943Z,1274.00
2023-05-19T06:19:20.948Z,1152.00
2023-05-19T06:20:20.911Z,1460.00
2023-05-19T06:21:20.893Z,1285.00
2023-05-19T06:22:20.888Z,1346.00
2023-05-19T06:23:20.899Z,1215.00
2023-05-19T06:24:20.867Z,1031.00
2023-05-19T06:25:20.858Z,1502.00
2023-05-19T06:26:20.868Z,1548.00
2023-05-19T06:27:20.857Z,1373.00
2023-05-19T06:28:20.860Z,1205.00
2023-05-19T06:29:20.857Z,1264.00
2023-05-19T06:30:20.812Z,1128.00
2023-05-19T06:31:20.805Z,1171.00
2023-05-19T06:32:20.808Z,1339.00
2023-05-19T06:33:20.797Z,1317.00
2023-05-19T06:34:20.757Z,1214.00
2023-05-19T06:35:20.734Z,1004.00
2023-05-19T06:36:20.751Z,961.00
2023-05-19T06:37:20.735Z,797.00
2023-05-19T06:38:20.720Z,851.00
2023-05-19T06:39:20.714Z,950.00
2023-05-19T06:40:20.704Z,934.00
2023-05-19T06:41:20.692Z,967.00
2023-05-19T06:42:20.685Z,850.00
2023-05-19T06:43:20.659Z,850.00
2023-05-19T06:44:21.222Z,847.00
2023-05-19T06:45:20.634Z,853.00
2023-05-19T06:46:20.749Z,870.00
2023-05-19T06:47:20.824Z,885.00
2023-05-19T06:48:20.604Z,919.00
2023-05-19T06:49:20.590Z,972.00
2023-05-19T06:50:20.585Z,1308.00
2023-05-19T06:51:20.891Z,1021.00
2023-05-19T06:52:20.575Z,1037.00
2023-05-19T06:53:20.547Z,1103.00
2023-05-19T06:54:20.551Z,1141.00
2023-05-19T06:55:20.570Z,1188.00
2023-05-19T06:56:20.551Z,1195.00
2023-05-19T06:57:20.507Z,1183.00
2023-05-19T06:58:20.503Z,1206.00
2023-05-19T06:59:20.534Z,1214.00
2023-05-19T07:00:22.964Z,1193.00
2023-05-19T07:01:20.513Z,1484.00
2023-05-19T07:02:20.466Z,1052.00
2023-05-19T07:03:20.586Z,1210.00
2023-05-19T07:04:20.459Z,1346.00
2023-05-19T07:05:20.436Z,1290.00
2023-05-19T07:06:20.417Z,1540.00
2023-05-19T07:07:20.415Z,1336.00
2023-05-19T07:08:20.399Z,1471.00
2023-05-19T07:09:20.405Z,1404.00
2023-05-19T07:10:20.392Z,1442.00
2023-05-19T07:11:20.367Z,1505.00
2023-05-19T07:12:20.355Z,1612.00
2023-05-19T07:13:20.337Z,1668.00
2023-05-19T07:14:20.354Z,1727.00
2023-05-19T07:15:20.312Z,1790.00
2023-05-19T07:16:20.361Z,2299.00
2023-05-19T07:17:20.604Z,6156.00
2023-05-19T07:18:20.286Z,10831.00
2023-05-19T07:19:20.357Z,3560.00
2023-05-19T07:20:20.281Z,2459.00
2023-05-19T07:21:20.252Z,1641.00
2023-05-19T07:22:20.265Z,2373.00
2023-05-19T07:23:20.240Z,4143.00
2023-05-19T07:24:20.248Z,12743.00
2023-05-19T07:25:20.224Z,30793.00
2023-05-19T07:26:20.212Z,17461.00
2023-05-19T07:27:20.183Z,9753.00
2023-05-19T07:28:20.243Z,5245.00
2023-05-19T07:29:20.185Z,3375.00
2023-05-19T07:30:20.162Z,2906.00
2023-05-19T07:31:20.147Z,6251.00
2023-05-19T07:32:20.197Z,5496.00
2023-05-19T07:33:20.146Z,3217.00
2023-05-19T07:34:20.112Z,2929.00
2023-05-19T07:35:20.098Z,2433.00
2023-05-19T07:36:20.116Z,2289.00
2023-05-19T07:37:20.119Z,3426.00
2023-05-19T07:38:20.118Z,4391.00
2023-05-19T07:39:20.118Z,2981.00
2023-05-19T07:40:20.062Z,3121.00
2023-05-19T07:41:20.047Z,2939.00
2023-05-19T07:42:20.061Z,2699.00
2023-05-19T07:43:20.038Z,1745.00
2023-05-19T07:44:20.011Z,4764.00
2023-05-19T07:45:20.011Z,1943.00
2023-05-19T07:46:20.050Z,2914.00
2023-05-19T07:47:19.984Z,16770.00
2023-05-19T07:48:19.964Z,13957.00
2023-05-19T07:49:19.952Z,3170.00
2023-05-19T07:50:19.962Z,12298.00
2023-05-19T07:51:19.925Z,3717.00
2023-05-19T07:52:19.967Z,3741.00
2023-05-19T07:53:19.921Z,3415.00
2023-05-19T07:54:19.931Z,4331.00
2023-05-19T07:55:19.913Z,2287.00
2023-05-19T07:56:19.935Z,4398.00
2023-05-19T07:57:19.902Z,4393.00
2023-05-19T07:58:19.866Z,4946.00
2023-05-19T07:59:19.852Z,3873.00
2023-05-19T08:00:19.840Z,3447.00
2023-05-19T08:01:19.830Z,2086.00
2023-05-19T08:02:19.881Z,4614.00
2023-05-19T08:03:19.898Z,6229.00
2023-05-19T08:04:19.812Z,2918.00
2023-05-19T08:05:19.778Z,2414.00
2023-05-19T08:06:19.799Z,7093.00
2023-05-19T08:07:19.768Z,3223.00
2023-05-19T08:08:19.778Z,4576.00
2023-05-19T08:09:19.734Z,22045.00
2023-05-19T08:10:19.758Z,25505.00
2023-05-19T08:11:19.722Z,10846.00
2023-05-19T08:12:19.715Z,2982.00
2023-05-19T08:13:19.711Z,2605.00
2023-05-19T08:14:19.688Z,15187.00
2023-05-19T08:15:19.758Z,18438.00
2023-05-19T08:16:19.721Z,10437.00
2023-05-19T08:17:19.668Z,5341.00
2023-05-19T08:18:19.657Z,5952.00
2023-05-19T08:19:19.685Z,2670.00
2023-05-19T08:20:19.643Z,7504.00
2023-05-19T08:21:19.604Z,9148.00
2023-05-19T08:22:19.604Z,2552.00
2023-05-19T08:23:19.591Z,3108.00
2023-05-19T08:24:19.601Z,5196.00
2023-05-19T08:25:19.645Z,2880.00
2023-05-19T08:26:19.561Z,18746.00
2023-05-19T08:27:19.543Z,6558.00
2023-05-19T08:28:19.549Z,2529.00
2023-05-19T08:29:19.861Z,2652.00
2023-05-19T08:30:19.516Z,5513.00
2023-05-19T08:31:19.536Z,3880.00
2023-05-19T08:32:19.488Z,3490.00
2023-05-19T08:33:19.482Z,26759.00
2023-05-19T08:34:19.485Z,3899.00
2023-05-19T08:35:19.476Z,2554.00
2023-05-19T08:36:19.456Z,2520.00
2023-05-19T08:37:19.446Z,2470.00
2023-05-19T08:38:19.447Z,2532.00
2023-05-19T08:39:19.505Z,3274.00
2023-05-19T08:40:19.425Z,2618.00
2023-05-19T08:41:19.394Z,2728.00
2023-05-19T08:42:19.411Z,8246.00
2023-05-19T08:43:19.405Z,2473.00
2023-05-19T08:44:19.370Z,1743.00
2023-05-19T08:45:19.348Z,5050.00
2023-05-19T08:46:19.368Z,3076.00
2023-05-19T08:47:19.341Z,8392.00
2023-05-19T08:48:19.356Z,2729.00
2023-05-19T08:49:19.311Z,2987.00
2023-05-19T08:50:19.303Z,1790.00
2023-05-19T08:51:19.281Z,2863.00
2023-05-19T08:52:19.306Z,3644.00
2023-05-19T08:53:32.414Z,2422.00
2023-05-19T08:54:19.305Z,2492.00
2023-05-19T08:55:19.240Z,4220.00
2023-05-19T08:56:19.244Z,2650.00
2023-05-19T08:57:19.245Z,3728.00
2023-05-19T08:58:19.205Z,10585.00
2023-05-19T08:59:19.205Z,1976.00
2023-05-19T09:00:19.188Z,9851.00
2023-05-19T09:01:19.208Z,1507.00
2023-05-19T09:02:19.182Z,3876.00
2023-05-19T09:04:19.237Z,2541.00
2023-05-19T09:05:19.170Z,2918.00
2023-05-19T09:06:19.164Z,10241.00
2023-05-19T09:07:19.166Z,2071.00
2023-05-19T09:08:19.106Z,6381.00
2023-05-19T09:09:19.109Z,10483.00
2023-05-19T09:10:19.087Z,1665.00
2023-05-19T09:11:19.129Z,2455.00
2023-05-19T09:12:19.072Z,9881.00
2023-05-19T09:13:19.062Z,3156.00
2023-05-19T09:14:19.069Z,19840.00
2023-05-19T09:15:19.021Z,21633.00
2023-05-19T09:16:19.069Z,2274.00
2023-05-19T09:17:19.003Z,1539.00
2023-05-19T09:18:19.005Z,2446.00
2023-05-19T09:19:19.019Z,15458.00
2023-05-19T09:20:19.008Z,25213.00
2023-05-19T09:21:18.975Z,27693.00
2023-05-19T09:22:18.973Z,74299.00
2023-05-19T09:23:18.960Z,58181.00
2023-05-19T09:24:18.951Z,21459.00
2023-05-19T09:25:18.989Z,25146.00
2023-05-19T09:26:18.935Z,2960.00
2023-05-19T09:27:18.904Z,2393.00
2023-05-19T09:28:18.902Z,1771.00
2023-05-19T09:29:18.873Z,2013.00
2023-05-19T09:30:18.918Z,2161.00
2023-05-19T09:31:18.853Z,9687.00
2023-05-19T09:32:18.948Z,11070.00
2023-05-19T09:33:18.884Z,1970.00
2023-05-19T09:34:18.900Z,1842.00
2023-05-19T09:35:19.348Z,2550.00
2023-05-19T09:36:18.832Z,3391.00
2023-05-19T09:37:18.786Z,6973.00
2023-05-19T09:38:18.785Z,1893.00
2023-05-19T09:39:18.805Z,2543.00
2023-05-19T09:40:18.827Z,3167.00
2023-05-19T09:41:18.769Z,10858.00
2023-05-19T09:42:18.748Z,1723.00
2023-05-19T09:43:18.727Z,2420.00
2023-05-19T09:44:18.746Z,10918.00
2023-05-19T09:45:18.719Z,2184.00
2023-05-19T09:46:18.757Z,2509.00
2023-05-19T09:47:18.681Z,2021.00
2023-05-19T09:48:18.696Z,2043.00
2023-05-19T09:49:18.677Z,1728.00
2023-05-19T09:50:18.750Z,1812.00
2023-05-19T09:51:18.643Z,1687.00
2023-05-19T09:52:18.653Z,1934.00
2023-05-19T09:53:18.663Z,2246.00
2023-05-19T09:54:18.631Z,3283.00
2023-05-19T09:55:18.606Z,3281.00
2023-05-19T09:56:18.592Z,5847.00
2023-05-19T09:57:18.588Z,7997.00
2023-05-19T09:58:18.584Z,1777.00
2023-05-19T09:59:18.549Z,7925.00
2023-05-19T10:00:18.621Z,1529.00
2023-05-19T10:01:18.540Z,4138.00
2023-05-19T10:02:18.545Z,1897.00
2023-05-19T10:03:18.560Z,8722.00
2023-05-19T10:04:18.517Z,1819.00
2023-05-19T10:05:18.652Z,1772.00
2023-05-19T10:06:18.509Z,1797.00
2023-05-19T10:07:18.495Z,2021.00
2023-05-19T10:08:18.479Z,2038.00
2023-05-19T10:09:18.459Z,3107.00
2023-05-19T10:10:18.441Z,5657.00
2023-05-19T10:11:18.419Z,4732.00
2023-05-19T10:12:18.441Z,2898.00
2023-05-19T10:13:18.409Z,1798.00
2023-05-19T10:14:18.397Z,1681.00
2023-05-19T10:15:19.213Z,2329.00
2023-05-19T10:16:18.427Z,2798.00
2023-05-19T10:17:26.143Z,2916.00
2023-05-19T10:18:18.357Z,8086.00
2023-05-19T10:19:18.429Z,1879.00
2023-05-19T10:20:18.331Z,1333.00
2023-05-19T10:21:18.351Z,1547.00
2023-05-19T10:22:18.340Z,2366.00
2023-05-19T10:23:21.107Z,1875.00
2023-05-19T10:24:19.403Z,1642.00
2023-05-19T10:25:25.454Z,6588.00
2023-05-19T10:26:18.279Z,3901.00
2023-05-19T10:27:18.455Z,1677.00
2023-05-19T10:28:21.245Z,2637.00
2023-05-19T10:29:18.246Z,2720.00
2023-05-19T10:30:18.249Z,2713.00
2023-05-19T10:31:18.241Z,2605.00
2023-05-19T10:32:18.229Z,2504.00
2023-05-19T10:33:18.353Z,2430.00
2023-05-19T10:34:18.219Z,2558.00
2023-05-19T10:35:18.197Z,2574.00
2023-05-19T10:36:20.650Z,2709.00
2023-05-19T10:37:18.907Z,2645.00
2023-05-19T10:38:18.130Z,2580.00
2023-05-19T10:39:18.138Z,2515.00
2023-05-19T10:40:18.138Z,2497.00
2023-05-19T10:41:18.116Z,2498.00
2023-05-19T10:42:18.094Z,2436.00
2023-05-19T10:43:18.082Z,2439.00
2023-05-19T10:44:18.089Z,2477.00
2023-05-19T10:45:18.084Z,2470.00
2023-05-19T10:46:18.075Z,2473.00
2023-05-19T10:47:18.089Z,2496.00
2023-05-19T10:48:18.028Z,2503.00
2023-05-19T10:49:18.044Z,2596.00
2023-05-19T10:50:18.051Z,2570.00
2023-05-19T10:51:18.008Z,2609.00
2023-05-19T10:52:17.989Z,7681.00
2023-05-19T10:53:17.999Z,1876.00
2023-05-19T10:54:17.985Z,2628.00
2023-05-19T10:55:18.058Z,2516.00
2023-05-19T10:56:17.957Z,2566.00
2023-05-19T10:57:17.940Z,2561.00
2023-05-19T10:58:17.937Z,2564.00
2023-05-19T10:59:17.938Z,2560.00
2023-05-19T11:00:17.908Z,2505.00
2023-05-19T11:01:17.987Z,2524.00
2023-05-19T11:02:17.987Z,8256.00
2023-05-19T11:03:17.930Z,1712.00
2023-05-19T11:04:17.934Z,1569.00
2023-05-19T11:05:17.872Z,2481.00
2023-05-19T11:06:17.860Z,2431.00
2023-05-19T11:07:17.840Z,2413.00
2023-05-19T11:08:17.844Z,2397.00
2023-05-19T11:09:17.969Z,2394.00
2023-05-19T11:10:17.796Z,2407.00
2023-05-19T11:11:18.273Z,2392.00
2023-05-19T11:12:17.776Z,2400.00
2023-05-19T11:13:17.795Z,2398.00
2023-05-19T11:14:17.773Z,2377.00
2023-05-19T11:15:17.763Z,2387.00
2023-05-19T11:16:17.747Z,2396.00
2023-05-19T11:17:18.484Z,2386.00
2023-05-19T11:18:17.749Z,2368.00
2023-05-19T11:19:17.749Z,2393.00
2023-05-19T11:20:17.715Z,2343.00
2023-05-19T11:21:17.728Z,2321.00
2023-05-19T11:22:17.689Z,2318.00
2023-05-19T11:23:17.748Z,2312.00
2023-05-19T11:24:17.652Z,2347.00
2023-05-19T11:25:17.653Z,2402.00
2023-05-19T11:26:17.632Z,2558.00
2023-05-19T11:27:17.657Z,2383.00
2023-05-19T11:28:17.621Z,2418.00
2023-05-19T11:29:17.602Z,2401.00
2023-05-19T11:30:17.602Z,2420.00
2023-05-19T11:31:17.601Z,2400.00
2023-05-19T11:32:17.650Z,2461.00
2023-05-19T11:33:17.614Z,2392.00
2023-05-19T11:34:17.538Z,2463.00
2023-05-19T11:35:17.570Z,2372.00
2023-05-19T11:36:17.570Z,2357.00
2023-05-19T11:37:17.545Z,2405.00
2023-05-19T11:38:17.548Z,2359.00
2023-05-19T11:39:17.525Z,2345.00
2023-05-19T11:40:17.506Z,2329.00
2023-05-19T11:41:18.902Z,2316.00
2023-05-19T11:42:17.458Z,2308.00
2023-05-19T11:43:17.460Z,2277.00
2023-05-19T11:44:17.441Z,2305.00
2023-05-19T11:45:17.489Z,2281.00
2023-05-19T11:46:17.532Z,2294.00
2023-05-19T11:47:17.405Z,2300.00
2023-05-19T11:48:17.560Z,2329.00
2023-05-19T11:49:17.398Z,2365.00
2023-05-19T11:50:17.406Z,2434.00
2023-05-19T11:51:17.370Z,2505.00
2023-05-19T11:52:17.401Z,2523.00
2023-05-19T11:53:17.353Z,2524.00
2023-05-19T11:54:17.343Z,2542.00
2023-05-19T11:55:17.353Z,2581.00
2023-05-19T11:56:17.313Z,2641.00
2023-05-19T11:57:17.366Z,2673.00
2023-05-19T11:58:17.542Z,2711.00
2023-05-19T11:59:17.423Z,2705.00
2023-05-19T12:00:17.271Z,4144.00
2023-05-19T12:01:17.265Z,3552.00
2023-05-19T12:02:17.274Z,2696.00
2023-05-19T12:03:17.625Z,1479.00
2023-05-19T12:04:17.265Z,7904.00
2023-05-19T12:05:17.319Z,1537.00
2023-05-19T12:06:17.265Z,1350.00
2023-05-19T12:07:17.197Z,2341.00
2023-05-19T12:08:17.177Z,2807.00
2023-05-19T12:09:17.198Z,2617.00
2023-05-19T12:10:17.157Z,2744.00
2023-05-19T12:11:18.178Z,2625.00
2023-05-19T12:12:17.222Z,2576.00
2023-05-19T12:13:17.152Z,2650.00
2023-05-19T12:14:17.126Z,2513.00
2023-05-19T12:15:17.128Z,2539.00
2023-05-19T12:16:17.158Z,2513.00
2023-05-19T12:17:17.100Z,2424.00
2023-05-19T12:18:17.099Z,2402.00
2023-05-19T12:19:17.104Z,6240.00
2023-05-19T12:20:17.056Z,2194.00
2023-05-19T12:21:17.049Z,1360.00
2023-05-19T12:22:17.031Z,1419.00
2023-05-19T12:23:17.042Z,1452.00
2023-05-19T12:24:17.006Z,1577.00
2023-05-19T12:25:17.040Z,1472.00
2023-05-19T12:26:16.998Z,1365.00
2023-05-19T12:27:16.981Z,1085.00
2023-05-19T12:28:17.098Z,1470.00
2023-05-19T12:29:16.961Z,2197.00